createdAt,value
2023-12-01T00:01:22.848Z,26.25
2023-12-01T00:03:49.966Z,19.52
2023-12-01T00:06:17.488Z,21.73
2023-12-01T00:08:46.123Z,17.40
2023-12-01T00:11:14.927Z,15.10
2023-12-01T00:13:44.903Z,17.60
2023-12-01T00:16:11.985Z,16.92
2023-12-01T00:18:39.270Z,15.55
2023-12-01T00:21:06.418Z,15.00
2023-12-01T00:23:33.557Z,13.82
2023-12-01T00:26:02.757Z,13.48
2023-12-01T00:28:29.737Z,14.02
2023-12-01T00:30:56.825Z,12.82
2023-12-01T00:33:24.212Z,15.18
2023-12-01T00:35:51.590Z,13.00
2023-12-01T00:38:18.662Z,12.65
2023-12-01T00:40:45.624Z,10.60
2023-12-01T00:43:14.579Z,10.32
2023-12-01T00:45:52.052Z,10.18
2023-12-01T00:48:19.436Z,10.43
2023-12-01T00:50:48.422Z,10.82
2023-12-01T00:53:15.354Z,14.27
2023-12-01T00:55:42.041Z,10.00
2023-12-01T00:58:09.320Z,10.35
2023-12-01T01:00:41.101Z,14.18
2023-12-01T01:03:09.110Z,10.85
2023-12-01T01:05:36.197Z,11.60
2023-12-01T01:08:03.221Z,12.48
2023-12-01T01:10:30.217Z,15.88
2023-12-01T01:13:00.219Z,15.38
2023-12-01T01:15:27.203Z,12.98
2023-12-01T01:17:56.708Z,12.50
2023-12-01T01:20:23.619Z,12.77
2023-12-01T01:22:50.382Z,13.80
2023-12-01T01:25:17.763Z,12.95
2023-12-01T01:27:45.382Z,13.85
2023-12-01T01:30:14.098Z,10.63
2023-12-01T01:32:50.783Z,10.70
2023-12-01T01:35:19.376Z,11.73
2023-12-01T01:40:15.504Z,12.20
2023-12-01T01:42:42.244Z,14.40
2023-12-01T01:45:09.489Z,10.98
2023-12-01T01:47:36.772Z,12.48
2023-12-01T01:50:04.346Z,11.63
2023-12-01T01:52:35.519Z,10.52
2023-12-01T01:55:05.637Z,12.60
2023-12-01T01:57:37.181Z,10.57
2023-12-01T02:00:04.647Z,10.40
2023-12-01T02:02:33.665Z,10.13
2023-12-01T02:05:03.870Z,10.35
2023-12-01T02:07:33.298Z,10.60
2023-12-01T02:10:00.310Z,11.63
2023-12-01T02:12:33.103Z,8.85
2023-12-01T02:15:00.213Z,9.43
2023-12-01T02:17:26.973Z,11.02
2023-12-01T02:19:57.363Z,10.57
2023-12-01T02:22:29.700Z,10.55
2023-12-01T02:24:59.647Z,10.25
2023-12-01T02:27:26.631Z,10.77
2023-12-01T02:29:53.924Z,14.00
2023-12-01T02:32:23.881Z,10.85
2023-12-01T02:34:51.185Z,11.88
2023-12-01T02:37:18.061Z,11.18
2023-12-01T02:39:46.190Z,9.65
2023-12-01T02:42:12.879Z,8.68
2023-12-01T02:44:39.802Z,11.27
2023-12-01T02:47:11.166Z,8.80
2023-12-01T02:49:38.217Z,9.00
2023-12-01T02:52:06.411Z,10.10
2023-12-01T02:54:33.873Z,9.55
2023-12-01T02:57:12.114Z,9.35
2023-12-01T02:59:45.596Z,9.02
2023-12-01T03:02:13.930Z,9.88
2023-12-01T03:04:50.680Z,11.30
2023-12-01T03:07:19.550Z,9.75
2023-12-01T03:09:46.870Z,10.82
2023-12-01T03:12:22.271Z,9.95
2023-12-01T03:15:05.563Z,9.25
2023-12-01T03:17:35.884Z,10.75
2023-12-01T03:20:06.671Z,10.82
2023-12-01T03:22:33.814Z,9.65
2023-12-01T03:25:01.472Z,10.07
2023-12-01T03:27:29.920Z,9.32
2023-12-01T03:29:56.629Z,11.35
2023-12-01T03:32:34.141Z,9.57
2023-12-01T03:35:00.985Z,9.00
2023-12-01T03:37:30.319Z,9.52
2023-12-01T03:40:00.452Z,9.63
2023-12-01T03:42:28.973Z,10.65
2023-12-01T03:44:57.087Z,10.73
2023-12-01T03:47:23.849Z,12.25
2023-12-01T03:49:53.370Z,9.30
2023-12-01T03:52:20.208Z,12.15
2023-12-01T03:54:46.974Z,11.43
2023-12-01T03:57:15.028Z,12.57
2023-12-01T03:59:43.317Z,11.93
2023-12-01T04:02:10.262Z,10.23
2023-12-01T04:04:41.709Z,9.07
2023-12-01T04:07:09.739Z,11.65
2023-12-01T04:09:36.796Z,11.68
2023-12-01T04:12:03.817Z,12.00
2023-12-01T04:14:36.260Z,12.98
2023-12-01T04:17:10.299Z,13.82
2023-12-01T04:19:37.666Z,13.70
2023-12-01T04:22:06.202Z,11.77
2023-12-01T04:24:34.784Z,13.50
2023-12-01T04:27:08.547Z,11.63
2023-12-01T04:29:39.889Z,12.88
2023-12-01T04:32:08.668Z,12.93
2023-12-01T04:34:35.717Z,11.27
2023-12-01T04:37:09.521Z,12.05
2023-12-01T04:39:40.071Z,14.80
2023-12-01T04:42:09.699Z,14.80
2023-12-01T04:44:36.982Z,13.00
2023-12-01T04:47:04.044Z,12.52
2023-12-01T04:49:32.351Z,11.85
2023-12-01T04:51:59.206Z,13.55
2023-12-01T04:54:26.140Z,13.07
2023-12-01T04:56:53.951Z,12.00
2023-12-01T04:59:21.218Z,12.45
2023-12-01T05:01:48.515Z,11.57
2023-12-01T05:04:15.644Z,13.02
2023-12-01T05:06:46.402Z,12.27
2023-12-01T05:09:22.686Z,12.13
2023-12-01T05:11:52.824Z,10.98
2023-12-01T05:14:19.759Z,12.82
2023-12-01T05:16:47.858Z,11.85
2023-12-01T05:19:18.416Z,10.48
2023-12-01T05:21:46.680Z,13.80
2023-12-01T05:24:15.852Z,10.93
2023-12-01T05:26:42.846Z,10.32
2023-12-01T05:29:14.298Z,11.10
2023-12-01T05:31:41.549Z,10.05
2023-12-01T05:34:11.066Z,9.13
2023-12-01T05:36:46.109Z,10.60
2023-12-01T05:39:17.397Z,8.98
2023-12-01T05:41:45.087Z,8.40
2023-12-01T05:44:12.195Z,7.75
2023-12-01T05:46:41.001Z,7.88
2023-12-01T05:49:14.635Z,8.90
2023-12-01T05:51:41.929Z,9.50
2023-12-01T05:54:08.818Z,10.10
2023-12-01T05:56:37.284Z,8.55
2023-12-01T05:59:06.007Z,8.18
2023-12-01T06:01:34.870Z,9.23
2023-12-01T06:04:03.842Z,10.85
2023-12-01T06:06:31.871Z,9.77
2023-12-01T06:08:59.045Z,10.82
2023-12-01T06:11:26.794Z,9.45
2023-12-01T06:13:58.073Z,8.85
2023-12-01T06:16:25.235Z,8.85
2023-12-01T06:19:02.090Z,10.15
2023-12-01T06:21:30.990Z,8.75
2023-12-01T06:24:06.541Z,8.48
2023-12-01T06:26:33.288Z,8.95
2023-12-01T06:29:03.894Z,9.20
2023-12-01T06:31:38.705Z,9.25
2023-12-01T06:34:09.031Z,8.85
2023-12-01T06:36:59.567Z,7.47
2023-12-01T06:39:36.229Z,9.50
2023-12-01T06:42:24.881Z,8.13
2023-12-01T06:45:00.034Z,7.93
2023-12-01T06:47:31.411Z,9.00
2023-12-01T06:49:58.306Z,8.45
2023-12-01T06:52:27.599Z,8.35
2023-12-01T06:54:58.682Z,9.45
2023-12-01T06:57:36.292Z,8.60
2023-12-01T07:00:11.573Z,8.85
2023-12-01T07:02:39.114Z,8.40
2023-12-01T07:05:09.443Z,8.07
2023-12-01T07:07:40.629Z,8.27
2023-12-01T07:10:08.916Z,7.70
2023-12-01T07:12:36.360Z,8.18
2023-12-01T07:15:35.302Z,7.30
2023-12-01T07:18:02.464Z,7.60
2023-12-01T07:20:34.503Z,7.97
2023-12-01T07:23:04.810Z,8.70
2023-12-01T07:25:34.046Z,8.13
2023-12-01T07:28:01.999Z,8.02
2023-12-01T07:30:30.563Z,8.15
2023-12-01T07:35:24.817Z,9.00
2023-12-01T07:37:54.440Z,7.32
2023-12-01T07:40:23.133Z,7.30
2023-12-01T07:45:21.060Z,7.85
2023-12-01T07:47:50.802Z,7.70
2023-12-01T07:50:18.951Z,8.60
2023-12-01T07:52:47.366Z,8.52
2023-12-01T07:55:14.420Z,8.43
2023-12-01T07:57:41.506Z,8.02
2023-12-01T08:00:19.393Z,8.60
2023-12-01T08:02:55.124Z,7.25
2023-12-01T08:05:22.913Z,7.18
2023-12-01T08:07:54.541Z,8.60
2023-12-01T08:10:23.863Z,7.35
2023-12-01T08:12:52.013Z,7.72
2023-12-01T08:15:19.363Z,7.28
2023-12-01T08:17:46.951Z,7.38
2023-12-01T08:20:20.091Z,7.68
2023-12-01T08:22:53.026Z,7.88
2023-12-01T08:25:33.703Z,7.25
2023-12-01T08:28:01.567Z,7.75
2023-12-01T08:30:37.587Z,7.22
2023-12-01T08:33:27.067Z,7.93
2023-12-01T08:35:55.435Z,8.38
2023-12-01T08:38:22.970Z,9.65
2023-12-01T08:40:54.877Z,8.57
2023-12-01T08:43:23.529Z,8.50
2023-12-01T08:45:52.793Z,7.90
2023-12-01T08:48:19.479Z,6.72
2023-12-01T08:50:47.441Z,7.75
2023-12-01T08:53:53.689Z,7.55
2023-12-01T08:56:25.227Z,7.57
2023-12-01T08:58:55.363Z,7.63
2023-12-01T09:01:22.834Z,9.02
2023-12-01T09:03:49.782Z,8.18
2023-12-01T09:06:16.920Z,7.97
2023-12-01T09:08:43.738Z,7.10
2023-12-01T09:11:11.018Z,9.05
2023-12-01T09:13:40.967Z,6.97
2023-12-01T09:16:08.124Z,8.65
2023-12-01T09:18:35.138Z,8.27
2023-12-01T09:21:02.090Z,9.10
2023-12-01T09:23:29.620Z,6.80
2023-12-01T09:25:56.841Z,8.15
2023-12-01T09:28:24.408Z,8.43
2023-12-01T09:30:54.708Z,6.53
2023-12-01T09:35:56.005Z,8.80
2023-12-01T09:38:26.478Z,5.65
2023-12-01T09:40:53.489Z,6.90
2023-12-01T09:43:20.891Z,7.45
2023-12-01T09:45:48.108Z,7.13
2023-12-01T09:48:19.332Z,7.75
2023-12-01T09:50:47.223Z,6.70
2023-12-01T09:53:17.842Z,6.68
2023-12-01T09:55:45.027Z,8.25
2023-12-01T09:58:12.208Z,7.68
2023-12-01T10:00:39.525Z,6.57
2023-12-01T10:03:07.185Z,7.55
2023-12-01T10:05:37.845Z,7.03
2023-12-01T10:08:06.778Z,7.75
2023-12-01T10:10:34.379Z,7.15
2023-12-01T10:13:09.039Z,8.93
2023-12-01T10:15:40.018Z,8.20
2023-12-01T10:18:14.355Z,7.47
2023-12-01T10:20:57.276Z,8.00
2023-12-01T10:23:24.663Z,7.53
2023-12-01T10:25:53.397Z,8.27
2023-12-01T10:28:20.501Z,8.60
2023-12-01T10:30:54.894Z,6.93
2023-12-01T10:33:21.994Z,8.25
2023-12-01T10:35:59.961Z,8.13
2023-12-01T10:38:27.176Z,8.95
2023-12-01T10:40:54.190Z,7.57
2023-12-01T10:43:21.592Z,6.50
2023-12-01T10:45:49.140Z,6.32
2023-12-01T10:48:19.681Z,6.50
2023-12-01T10:50:47.153Z,5.03
2023-12-01T10:53:16.749Z,5.20
2023-12-01T10:55:45.960Z,5.75
2023-12-01T10:58:15.899Z,5.82
2023-12-01T11:00:44.648Z,6.10
2023-12-01T11:03:15.142Z,7.03
2023-12-01T11:05:43.087Z,6.28
2023-12-01T11:08:28.419Z,5.97
2023-12-01T11:10:58.134Z,6.55
2023-12-01T11:13:29.543Z,6.40
2023-12-01T11:15:57.730Z,4.90
2023-12-01T11:18:24.971Z,6.22
2023-12-01T11:20:56.592Z,5.63
2023-12-01T11:23:26.114Z,5.28
2023-12-01T11:25:57.547Z,6.28
2023-12-01T11:28:40.495Z,6.18
2023-12-01T11:31:11.171Z,5.68
2023-12-01T11:33:40.400Z,5.57
2023-12-01T11:36:32.008Z,6.63
2023-12-01T11:39:18.378Z,4.78
2023-12-01T11:41:50.398Z,4.63
2023-12-01T11:44:18.136Z,4.60
2023-12-01T11:46:45.934Z,4.70
2023-12-01T11:49:16.275Z,5.22
2023-12-01T11:51:45.158Z,5.78
2023-12-01T11:54:14.586Z,3.67
2023-12-01T11:56:46.972Z,5.13
2023-12-01T11:59:13.886Z,5.30
2023-12-01T12:01:41.225Z,4.47
2023-12-01T12:04:08.523Z,4.97
2023-12-01T12:06:35.905Z,5.18
2023-12-01T12:09:08.486Z,4.72
2023-12-01T12:11:37.287Z,4.78
2023-12-01T12:14:05.693Z,4.65
2023-12-01T12:16:33.412Z,5.30
2023-12-01T12:19:02.724Z,4.30
2023-12-01T12:21:33.079Z,4.65
2023-12-01T12:24:00.668Z,5.22
2023-12-01T12:26:31.189Z,4.75
2023-12-01T12:29:00.022Z,4.60
2023-12-01T12:31:28.033Z,4.25
2023-12-01T12:33:55.720Z,3.92
2023-12-01T12:36:25.015Z,4.63
2023-12-01T12:38:52.204Z,5.03
2023-12-01T12:41:23.816Z,4.72
2023-12-01T12:43:51.784Z,5.28
2023-12-01T12:46:20.469Z,5.03
2023-12-01T12:48:48.084Z,5.90
2023-12-01T12:51:18.625Z,4.85
2023-12-01T12:53:51.410Z,5.35
2023-12-01T12:56:22.055Z,3.97
2023-12-01T12:58:49.196Z,4.63
2023-12-01T13:01:18.739Z,5.18
2023-12-01T13:03:54.689Z,4.47
2023-12-01T13:06:22.351Z,5.10
2023-12-01T13:08:54.116Z,5.15
2023-12-01T13:11:21.651Z,4.82
2023-12-01T13:13:48.881Z,5.32
2023-12-01T13:16:16.684Z,4.75
2023-12-01T13:18:43.960Z,5.30
2023-12-01T13:21:14.640Z,5.30
2023-12-01T13:23:41.871Z,5.85
2023-12-01T13:26:11.752Z,6.65
2023-12-01T13:28:42.155Z,5.57
2023-12-01T13:31:09.199Z,5.15
2023-12-01T13:33:37.299Z,5.55
2023-12-01T13:36:05.183Z,4.63
2023-12-01T13:38:33.214Z,5.18
2023-12-01T13:41:00.823Z,5.45
2023-12-01T13:43:27.717Z,4.43
2023-12-01T13:45:55.887Z,4.80
2023-12-01T13:48:23.350Z,4.18
2023-12-01T13:50:50.563Z,6.07
2023-12-01T13:53:17.693Z,5.15
2023-12-01T13:55:49.810Z,5.43
2023-12-01T13:58:21.340Z,5.43
2023-12-01T14:00:49.806Z,6.03
2023-12-01T14:03:20.878Z,5.45
2023-12-01T14:05:54.469Z,5.10
2023-12-01T14:08:23.958Z,4.88
2023-12-01T14:10:53.658Z,5.70
2023-12-01T14:13:22.121Z,5.18
2023-12-01T14:15:49.150Z,5.97
2023-12-01T14:18:16.612Z,5.55
2023-12-01T14:20:43.675Z,5.70
2023-12-01T14:23:10.708Z,5.80
2023-12-01T14:25:38.501Z,4.93
2023-12-01T14:28:07.595Z,6.60
2023-12-01T14:30:34.913Z,6.35
2023-12-01T14:33:02.553Z,5.40
2023-12-01T14:35:29.556Z,7.00
2023-12-01T14:37:56.552Z,5.93
2023-12-01T14:40:23.942Z,6.05
2023-12-01T14:42:50.845Z,6.38
2023-12-01T14:45:19.406Z,5.07
2023-12-01T14:47:46.455Z,6.03
2023-12-01T14:50:13.528Z,7.40
2023-12-01T14:52:43.861Z,5.97
2023-12-01T14:55:11.956Z,6.55
2023-12-01T14:57:39.264Z,6.78
2023-12-01T15:00:12.054Z,5.90
2023-12-01T15:02:41.363Z,6.07
2023-12-01T15:05:09.172Z,6.57
2023-12-01T15:07:36.101Z,6.57
2023-12-01T15:10:05.447Z,5.70
2023-12-01T15:12:34.685Z,6.57
2023-12-01T15:15:02.495Z,7.45
2023-12-01T15:17:31.156Z,5.50
2023-12-01T15:19:59.708Z,6.28
2023-12-01T15:24:55.468Z,6.80
2023-12-01T15:27:25.141Z,6.82
2023-12-01T15:29:53.266Z,7.00
2023-12-01T15:32:22.926Z,6.57
2023-12-01T15:34:50.605Z,6.20
2023-12-01T15:37:23.234Z,7.97
2023-12-01T15:39:50.278Z,7.70
2023-12-01T15:42:18.475Z,7.10
2023-12-01T15:44:45.842Z,7.22
2023-12-01T15:47:13.873Z,6.30
2023-12-01T15:49:40.803Z,7.55
2023-12-01T15:52:08.273Z,5.72
2023-12-01T15:54:36.638Z,6.63
2023-12-01T15:57:06.284Z,8.32
2023-12-01T15:59:33.458Z,6.78
2023-12-01T16:02:01.693Z,5.97
2023-12-01T16:04:31.481Z,6.25
2023-12-01T16:07:00.495Z,6.25
2023-12-01T16:09:27.624Z,7.75
2023-12-01T16:11:55.765Z,6.97
2023-12-01T16:14:22.791Z,7.40
2023-12-01T16:16:49.722Z,8.95
2023-12-01T16:19:16.943Z,8.20
2023-12-01T16:21:45.579Z,6.78
2023-12-01T16:24:13.526Z,7.45
2023-12-01T16:26:41.364Z,7.90
2023-12-01T16:29:09.633Z,8.82
2023-12-01T16:31:36.416Z,9.20
2023-12-01T16:34:03.780Z,7.32
2023-12-01T16:36:33.379Z,8.02
2023-12-01T16:39:00.959Z,7.53
2023-12-01T16:41:27.984Z,7.40
2023-12-01T16:43:54.879Z,8.32
2023-12-01T16:46:23.194Z,8.15
2023-12-01T16:48:50.395Z,7.50
2023-12-01T16:51:17.955Z,9.02
2023-12-01T16:53:49.180Z,7.63
2023-12-01T16:56:18.359Z,7.65
2023-12-01T16:58:47.795Z,6.57
2023-12-01T17:01:15.509Z,7.38
2023-12-01T17:03:44.865Z,6.60
2023-12-01T17:06:13.877Z,7.72
2023-12-01T17:08:41.680Z,8.57
2023-12-01T17:11:11.178Z,8.23
2023-12-01T17:13:38.773Z,8.82
2023-12-01T17:16:07.596Z,8.00
2023-12-01T17:18:35.060Z,7.93
2023-12-01T17:21:04.837Z,9.30
2023-12-01T17:23:31.999Z,8.27
2023-12-01T17:25:58.729Z,6.68
2023-12-01T17:28:25.413Z,8.80
2023-12-01T17:30:53.044Z,7.20
2023-12-01T17:33:20.002Z,8.90
2023-12-01T17:35:50.143Z,9.45
2023-12-01T17:38:22.463Z,8.65
2023-12-01T17:40:49.664Z,8.50
2023-12-01T17:43:16.743Z,10.38
2023-12-01T17:45:45.103Z,9.05
2023-12-01T17:48:12.412Z,8.68
2023-12-01T17:50:39.458Z,9.73
2023-12-01T17:53:06.803Z,6.93
2023-12-01T17:55:35.403Z,8.50
2023-12-01T17:58:02.699Z,9.73
2023-12-01T18:00:30.311Z,9.25
2023-12-01T18:02:57.401Z,7.72
2023-12-01T18:05:24.429Z,11.35
2023-12-01T18:07:53.858Z,9.57
2023-12-01T18:10:21.002Z,10.57
2023-12-01T18:12:49.232Z,9.00
2023-12-01T18:15:16.316Z,8.95
2023-12-01T18:17:44.396Z,9.50
2023-12-01T18:20:11.902Z,9.57
2023-12-01T18:22:38.837Z,10.90
2023-12-01T18:25:06.515Z,8.95
2023-12-01T18:27:33.507Z,9.38
2023-12-01T18:30:02.368Z,10.70
2023-12-01T18:32:29.513Z,9.80
2023-12-01T18:34:56.692Z,10.15
2023-12-01T18:37:24.226Z,8.95
2023-12-01T18:39:51.752Z,8.40
2023-12-01T18:42:29.352Z,9.10
2023-12-01T18:44:58.590Z,8.88
2023-12-01T18:47:29.317Z,9.90
2023-12-01T18:49:56.776Z,10.63
2023-12-01T18:52:23.904Z,10.05
2023-12-01T18:54:50.646Z,9.13
2023-12-01T18:57:17.810Z,10.80
2023-12-01T18:59:44.653Z,8.80
2023-12-01T19:02:11.794Z,11.00
2023-12-01T19:04:40.316Z,10.68
2023-12-01T19:07:07.973Z,8.55
2023-12-01T19:09:35.816Z,11.80
2023-12-01T19:12:04.569Z,10.30
2023-12-01T19:14:32.154Z,8.27
2023-12-01T19:17:05.344Z,9.35
2023-12-01T19:19:32.589Z,10.15
2023-12-01T19:22:05.442Z,9.82
2023-12-01T19:24:33.022Z,10.55
2023-12-01T19:27:01.587Z,9.90
2023-12-01T19:29:28.788Z,9.43
2023-12-01T19:31:55.798Z,8.82
2023-12-01T19:34:23.369Z,11.00
2023-12-01T19:36:50.809Z,8.85
2023-12-01T19:39:20.356Z,10.02
2023-12-01T19:41:47.840Z,10.13
2023-12-01T19:44:14.995Z,10.50
2023-12-01T19:46:42.438Z,10.73
2023-12-01T19:49:10.096Z,11.48
2023-12-01T19:51:38.389Z,11.85
2023-12-01T19:54:06.665Z,10.02
2023-12-01T19:56:35.185Z,10.38
2023-12-01T20:01:29.214Z,10.15
2023-12-01T20:03:56.280Z,9.90
2023-12-01T20:06:24.607Z,9.75
2023-12-01T20:08:51.947Z,9.50
2023-12-01T20:11:23.338Z,9.07
2023-12-01T20:13:51.988Z,8.95
2023-12-01T20:16:19.580Z,8.25
2023-12-01T20:18:48.625Z,8.35
2023-12-01T20:21:16.651Z,9.00
2023-12-01T20:23:46.525Z,10.82
2023-12-01T20:26:13.530Z,9.95
2023-12-01T20:28:40.865Z,10.32
2023-12-01T20:31:09.434Z,9.10
2023-12-01T20:33:36.567Z,9.13
2023-12-01T20:36:03.716Z,9.25
2023-12-01T20:38:30.585Z,9.38
2023-12-01T20:41:02.130Z,10.15
2023-12-01T20:43:29.566Z,7.30
2023-12-01T20:45:56.983Z,8.35
2023-12-01T20:48:27.569Z,9.10
2023-12-01T20:50:55.054Z,9.85
2023-12-01T20:53:22.680Z,10.85
2023-12-01T20:55:49.667Z,9.18
2023-12-01T20:58:20.262Z,10.05
2023-12-01T21:00:48.009Z,9.60
2023-12-01T21:03:18.234Z,8.93
2023-12-01T21:05:48.790Z,9.38
2023-12-01T21:08:16.331Z,9.65
2023-12-01T21:10:43.189Z,9.65
2023-12-01T21:13:10.335Z,9.55
2023-12-01T21:15:37.117Z,11.05
2023-12-01T21:18:05.307Z,11.80
2023-12-01T21:20:32.887Z,13.07
2023-12-01T21:23:03.783Z,10.93
2023-12-01T21:25:31.367Z,11.35
2023-12-01T21:27:58.744Z,10.73
2023-12-01T21:30:26.646Z,9.82
2023-12-01T21:32:53.931Z,10.18
2023-12-01T21:35:23.989Z,10.10
2023-12-01T21:37:51.054Z,9.57
2023-12-01T21:40:20.345Z,9.48
2023-12-01T21:42:47.154Z,10.77
2023-12-01T21:45:14.129Z,11.15
2023-12-01T21:47:41.362Z,11.23
2023-12-01T21:50:09.796Z,10.70
2023-12-01T21:52:40.280Z,9.90
2023-12-01T21:55:08.061Z,10.02
2023-12-01T21:57:39.649Z,11.10
2023-12-01T22:00:07.619Z,9.02
2023-12-01T22:02:35.284Z,8.52
2023-12-01T22:05:02.514Z,10.52
2023-12-01T22:07:30.557Z,11.45
2023-12-01T22:09:57.501Z,10.52
2023-12-01T22:12:24.516Z,10.13
2023-12-01T22:14:52.961Z,8.77
2023-12-01T22:17:20.457Z,8.80
2023-12-01T22:19:49.016Z,9.48
2023-12-01T22:24:46.231Z,10.95
2023-12-01T22:27:13.444Z,7.55
2023-12-01T22:29:40.550Z,10.05
2023-12-01T22:32:09.315Z,10.48
2023-12-01T22:34:36.351Z,9.27
2023-12-01T22:37:03.585Z,10.93
2023-12-01T22:39:31.141Z,9.35
2023-12-01T22:42:00.934Z,9.75
2023-12-01T22:44:30.868Z,9.48
2023-12-01T22:46:59.419Z,11.43
2023-12-01T22:51:54.676Z,9.00
2023-12-01T22:54:21.803Z,9.70
2023-12-01T22:56:48.922Z,11.18
2023-12-01T22:59:16.005Z,11.05
2023-12-01T23:01:42.893Z,9.80
2023-12-01T23:04:10.082Z,10.20
2023-12-01T23:06:37.506Z,10.10
2023-12-01T23:09:07.786Z,8.07
2023-12-01T23:11:35.059Z,9.30
2023-12-01T23:14:05.578Z,11.63
2023-12-01T23:16:33.698Z,11.85
2023-12-01T23:19:04.054Z,11.05
2023-12-01T23:21:31.699Z,10.52
2023-12-01T23:24:02.127Z,9.73
2023-12-01T23:26:30.778Z,9.93
2023-12-01T23:28:58.973Z,11.23
2023-12-01T23:31:26.396Z,9.85
2023-12-01T23:33:54.469Z,10.60
2023-12-01T23:36:26.922Z,10.43
2023-12-01T23:38:54.191Z,9.25
2023-12-01T23:41:27.249Z,8.13
2023-12-01T23:43:55.781Z,10.23
2023-12-01T23:48:53.099Z,8.50
2023-12-01T23:51:20.832Z,8.40
2023-12-01T23:53:49.112Z,9.65
2023-12-01T23:56:16.349Z,8.73
2023-12-01T23:58:43.245Z,9.70
